createdAt,value
2019-02-27T00:00:22.331Z,3.97
2019-02-27T00:02:53.792Z,3.70
2019-02-27T00:05:24.555Z,3.83
2019-02-27T00:07:54.994Z,3.87
2019-02-27T00:10:24.642Z,3.70
2019-02-27T00:12:54.338Z,3.67
2019-02-27T00:15:24.315Z,3.80
2019-02-27T00:17:54.148Z,3.90
2019-02-27T00:20:23.859Z,3.67
2019-02-27T00:22:53.296Z,3.80
2019-02-27T00:25:22.683Z,3.90
2019-02-27T00:27:52.297Z,3.33
2019-02-27T00:30:22.019Z,3.67
2019-02-27T00:32:51.904Z,3.40
2019-02-27T00:35:21.412Z,3.80
2019-02-27T00:37:52.142Z,3.97
2019-02-27T00:40:22.170Z,3.40
2019-02-27T00:42:54.090Z,3.33
2019-02-27T00:45:22.841Z,3.57
2019-02-27T00:47:53.306Z,3.53
2019-02-27T00:50:23.315Z,3.60
2019-02-27T00:52:52.714Z,3.87
2019-02-27T00:55:22.066Z,3.27
2019-02-27T00:57:53.905Z,3.50
2019-02-27T01:00:22.966Z,3.73
2019-02-27T01:02:53.496Z,3.63
2019-02-27T01:05:23.365Z,3.27
2019-02-27T01:07:54.748Z,3.60
2019-02-27T01:10:24.266Z,3.47
2019-02-27T01:12:57.712Z,3.40
2019-02-27T01:15:26.443Z,3.37
2019-02-27T01:17:57.562Z,3.30
2019-02-27T01:20:27.241Z,3.40
2019-02-27T01:22:56.651Z,3.60
2019-02-27T01:25:26.381Z,3.17
2019-02-27T01:27:55.862Z,2.97
2019-02-27T01:30:25.353Z,3.53
2019-02-27T01:32:54.946Z,3.40
2019-02-27T01:35:24.587Z,3.37
2019-02-27T01:37:54.022Z,3.20
2019-02-27T01:40:23.419Z,3.20
2019-02-27T01:42:52.879Z,3.20
2019-02-27T01:45:22.403Z,3.60
2019-02-27T01:47:51.771Z,3.07
2019-02-27T01:50:27.083Z,3.10
2019-02-27T01:52:56.412Z,3.40
2019-02-27T01:55:26.962Z,3.30
2019-02-27T01:57:56.606Z,3.30
2019-02-27T02:00:26.043Z,3.30
2019-02-27T02:02:55.700Z,3.40
2019-02-27T02:05:27.463Z,3.27
2019-02-27T02:11:09.368Z,3.20
2019-02-27T02:13:58.266Z,3.40
2019-02-27T02:16:34.418Z,3.30
2019-02-27T02:19:13.179Z,3.17
2019-02-27T02:22:03.467Z,3.40
2019-02-27T02:24:56.807Z,3.40
2019-02-27T02:27:45.712Z,3.40
2019-02-27T02:30:29.729Z,3.30
2019-02-27T02:33:01.416Z,3.33
2019-02-27T02:35:50.661Z,3.27
2019-02-27T02:38:25.746Z,3.47
2019-02-27T02:41:17.673Z,3.40
2019-02-27T02:43:52.799Z,3.13
2019-02-27T02:46:34.303Z,3.20
2019-02-27T02:49:19.040Z,3.07
2019-02-27T02:52:09.507Z,3.23
2019-02-27T02:54:48.156Z,3.47
2019-02-27T02:57:36.198Z,3.27
2019-02-27T03:00:24.271Z,3.70
2019-02-27T03:03:05.869Z,3.40
2019-02-27T03:06:13.589Z,3.33
2019-02-27T03:08:56.219Z,3.30
2019-02-27T03:11:54.764Z,9.00
2019-02-27T03:14:37.715Z,3.30
2019-02-27T03:17:43.572Z,3.67
2019-02-27T03:20:31.249Z,3.47
2019-02-27T03:23:22.769Z,3.50
2019-02-27T03:25:58.122Z,3.37
2019-02-27T03:28:51.832Z,3.40
2019-02-27T03:31:24.315Z,3.53
2019-02-27T03:34:21.108Z,3.50
2019-02-27T03:37:05.364Z,3.30
2019-02-27T03:39:47.109Z,3.47
2019-02-27T03:42:47.010Z,3.57
2019-02-27T03:45:31.004Z,3.23
2019-02-27T03:48:08.399Z,3.13
2019-02-27T03:50:49.865Z,3.50
2019-02-27T03:53:21.064Z,3.57
2019-02-27T03:55:53.540Z,3.17
2019-02-27T03:58:43.619Z,3.37
2019-02-27T04:01:47.865Z,3.17
2019-02-27T04:04:35.738Z,3.33
2019-02-27T04:07:34.056Z,3.10
2019-02-27T04:10:03.653Z,3.13
2019-02-27T04:12:33.087Z,3.33
2019-02-27T04:15:02.866Z,3.30
2019-02-27T04:17:31.355Z,3.27
2019-02-27T04:20:01.243Z,3.13
2019-02-27T04:22:36.283Z,3.23
2019-02-27T04:25:02.786Z,3.30
2019-02-27T04:27:32.220Z,3.30
2019-02-27T04:30:01.607Z,3.50
2019-02-27T04:32:32.860Z,3.30
2019-02-27T04:35:06.163Z,3.47
2019-02-27T04:37:33.480Z,3.33
2019-02-27T04:40:03.080Z,3.00
2019-02-27T04:42:33.828Z,3.30
2019-02-27T04:45:03.748Z,3.73
2019-02-27T04:47:33.530Z,3.83
2019-02-27T04:50:02.990Z,3.40
2019-02-27T04:52:32.356Z,3.20
2019-02-27T04:55:01.977Z,3.07
2019-02-27T04:57:33.782Z,3.33
2019-02-27T05:00:02.468Z,3.50
2019-02-27T05:02:33.396Z,3.63
2019-02-27T05:05:06.226Z,3.20
2019-02-27T05:07:36.596Z,3.17
2019-02-27T05:10:08.585Z,3.40
2019-02-27T05:12:37.930Z,3.23
2019-02-27T05:15:08.809Z,3.57
2019-02-27T05:17:38.374Z,3.80
2019-02-27T05:20:12.443Z,3.57
2019-02-27T05:22:41.537Z,3.97
2019-02-27T05:25:12.119Z,3.67
2019-02-27T05:27:42.563Z,3.90
2019-02-27T05:30:13.005Z,3.40
2019-02-27T05:32:42.479Z,3.40
2019-02-27T05:35:11.983Z,3.73
2019-02-27T05:37:41.701Z,3.73
2019-02-27T05:40:11.182Z,3.60
2019-02-27T05:42:40.556Z,3.90
2019-02-27T05:45:12.188Z,5.20
2019-02-27T05:47:44.812Z,4.37
2019-02-27T05:50:13.219Z,4.17
2019-02-27T05:52:42.633Z,4.10
2019-02-27T05:55:13.444Z,4.03
2019-02-27T05:57:43.088Z,4.30
2019-02-27T06:00:15.506Z,4.30
2019-02-27T06:02:45.678Z,4.00
2019-02-27T06:05:16.483Z,3.90
2019-02-27T06:07:45.889Z,3.80
2019-02-27T06:10:19.864Z,3.97
2019-02-27T06:12:48.906Z,4.33
2019-02-27T06:15:18.818Z,3.90
2019-02-27T06:17:49.052Z,3.80
2019-02-27T06:20:20.323Z,4.30
2019-02-27T06:22:49.756Z,4.37
2019-02-27T06:25:23.223Z,3.93
2019-02-27T06:27:50.714Z,4.00
2019-02-27T06:30:21.347Z,4.00
2019-02-27T06:32:51.053Z,4.03
2019-02-27T06:35:20.764Z,4.03
2019-02-27T06:37:51.360Z,3.77
2019-02-27T06:40:20.959Z,4.10
2019-02-27T06:42:53.394Z,3.80
2019-02-27T06:45:21.854Z,3.80
2019-02-27T06:47:52.058Z,4.03
2019-02-27T06:50:25.181Z,4.10
2019-02-27T06:52:53.028Z,4.53
2019-02-27T06:55:25.420Z,4.00
2019-02-27T06:57:54.860Z,4.83
2019-02-27T07:00:26.502Z,5.30
2019-02-27T07:02:56.219Z,5.03
2019-02-27T07:05:26.564Z,4.83
2019-02-27T07:07:56.282Z,4.53
2019-02-27T07:10:25.910Z,4.87
2019-02-27T07:12:55.466Z,5.83
2019-02-27T07:15:25.179Z,5.80
2019-02-27T07:17:54.561Z,5.60
2019-02-27T07:20:25.776Z,5.30
2019-02-27T07:22:55.320Z,5.63
2019-02-27T07:25:25.386Z,6.13
2019-02-27T07:27:55.147Z,5.97
2019-02-27T07:30:24.552Z,5.57
2019-02-27T07:32:53.964Z,6.63
2019-02-27T07:35:26.388Z,6.13
2019-02-27T07:37:54.704Z,6.70
2019-02-27T07:40:24.324Z,6.30
2019-02-27T07:42:53.688Z,7.00
2019-02-27T07:45:23.662Z,6.37
2019-02-27T07:47:53.440Z,6.37
2019-02-27T07:50:23.020Z,6.07
2019-02-27T07:52:52.495Z,6.40
2019-02-27T07:55:23.624Z,6.70
2019-02-27T07:57:58.447Z,5.57
2019-02-27T08:00:26.223Z,6.17
2019-02-27T08:02:55.703Z,6.70
2019-02-27T08:05:28.331Z,6.90
2019-02-27T08:07:56.719Z,6.90
2019-02-27T08:10:26.671Z,6.63
2019-02-27T08:12:56.782Z,6.87
2019-02-27T08:15:26.410Z,6.97
2019-02-27T08:17:57.952Z,6.60
2019-02-27T08:20:26.871Z,6.63
2019-02-27T08:22:57.953Z,6.93
2019-02-27T08:25:27.418Z,6.27
2019-02-27T08:27:56.901Z,7.03
2019-02-27T08:30:27.667Z,7.40
2019-02-27T08:32:57.237Z,6.50
2019-02-27T08:35:26.964Z,6.50
2019-02-27T08:38:02.509Z,6.80
2019-02-27T08:40:27.643Z,7.90
2019-02-27T08:42:57.055Z,8.27
2019-02-27T08:45:27.637Z,8.50
2019-02-27T08:47:57.126Z,7.77
2019-02-27T08:50:29.219Z,8.40
2019-02-27T08:52:58.016Z,7.90
2019-02-27T08:55:27.476Z,7.80
2019-02-27T08:57:57.150Z,8.20
2019-02-27T09:00:29.240Z,8.17
2019-02-27T09:03:02.537Z,8.03
2019-02-27T09:05:30.053Z,7.73
2019-02-27T09:07:59.722Z,7.53
2019-02-27T09:10:30.646Z,7.10
2019-02-27T09:15:34.831Z,7.23
2019-02-27T09:18:08.531Z,7.37
2019-02-27T09:20:38.122Z,6.97
2019-02-27T09:23:08.502Z,6.50
2019-02-27T09:25:37.894Z,7.30
2019-02-27T09:28:09.309Z,6.93
2019-02-27T09:30:38.746Z,7.13
2019-02-27T09:33:08.353Z,7.20
2019-02-27T09:35:38.786Z,7.87
2019-02-27T09:38:10.568Z,6.83
2019-02-27T09:40:39.943Z,7.57
2019-02-27T09:43:09.802Z,7.50
2019-02-27T09:45:39.242Z,7.40
2019-02-27T09:48:08.749Z,6.97
2019-02-27T09:50:47.652Z,7.47
2019-02-27T09:53:14.807Z,7.40
2019-02-27T09:55:44.258Z,8.23
2019-02-27T09:58:13.817Z,8.37
2019-02-27T10:00:52.639Z,8.63
2019-02-27T10:03:26.494Z,7.40
2019-02-27T10:05:56.008Z,7.50
2019-02-27T10:08:28.793Z,7.13
2019-02-27T10:10:58.481Z,7.57
2019-02-27T10:13:28.115Z,6.50
2019-02-27T10:16:00.566Z,7.00
2019-02-27T10:18:28.716Z,6.37
2019-02-27T10:20:58.112Z,5.53
2019-02-27T10:23:31.208Z,6.53
2019-02-27T10:26:00.043Z,6.53
2019-02-27T10:28:29.456Z,5.40
2019-02-27T10:30:58.833Z,5.80
2019-02-27T10:33:30.256Z,4.90
2019-02-27T10:36:03.355Z,4.87
2019-02-27T10:38:30.866Z,4.97
2019-02-27T10:41:00.519Z,5.90
2019-02-27T10:43:29.944Z,4.97
2019-02-27T10:45:59.367Z,5.30
2019-02-27T10:48:28.807Z,4.37
2019-02-27T10:50:58.287Z,4.70
2019-02-27T10:53:29.763Z,4.93
2019-02-27T10:55:59.411Z,4.23
2019-02-27T10:58:29.182Z,4.90
2019-02-27T11:01:01.110Z,4.53
2019-02-27T11:03:29.915Z,4.40
2019-02-27T11:06:00.802Z,3.77
2019-02-27T11:08:30.455Z,3.90
2019-02-27T11:10:59.944Z,3.83
2019-02-27T11:13:29.868Z,7.73
2019-02-27T11:15:59.419Z,3.70
2019-02-27T11:18:28.778Z,3.80
2019-02-27T11:20:59.202Z,4.00
2019-02-27T11:23:30.086Z,3.30
2019-02-27T11:25:59.737Z,3.50
2019-02-27T11:28:29.197Z,2.77
2019-02-27T11:30:58.591Z,2.70
2019-02-27T11:33:32.778Z,2.30
2019-02-27T11:35:59.933Z,2.60
2019-02-27T11:38:29.621Z,2.50
2019-02-27T11:40:59.235Z,2.80
2019-02-27T11:43:28.612Z,2.53
2019-02-27T11:45:58.676Z,3.07
2019-02-27T11:48:28.149Z,3.00
2019-02-27T11:50:57.641Z,3.17
2019-02-27T11:53:27.254Z,2.80
2019-02-27T11:55:56.656Z,2.70
2019-02-27T11:58:26.004Z,2.90
2019-02-27T12:00:55.515Z,2.27
2019-02-27T12:03:25.297Z,2.27
2019-02-27T12:05:54.976Z,2.00
2019-02-27T12:08:25.832Z,2.80
2019-02-27T12:10:55.637Z,2.53
2019-02-27T12:13:25.206Z,2.90
2019-02-27T12:15:55.147Z,2.53
2019-02-27T12:18:26.202Z,2.43
2019-02-27T12:20:55.717Z,2.80
2019-02-27T12:23:25.282Z,2.70
2019-02-27T12:25:54.804Z,2.50
2019-02-27T12:28:24.817Z,2.50
2019-02-27T12:30:54.243Z,2.37
2019-02-27T12:33:23.811Z,2.43
2019-02-27T12:35:53.687Z,2.50
2019-02-27T12:38:23.544Z,2.70
2019-02-27T12:40:58.264Z,2.20
2019-02-27T12:43:28.282Z,2.67
2019-02-27T12:46:00.894Z,2.30
2019-02-27T12:48:28.918Z,2.50
2019-02-27T12:51:05.924Z,2.83
2019-02-27T12:53:46.200Z,3.03
2019-02-27T12:56:17.147Z,2.60
2019-02-27T12:58:59.235Z,3.10
2019-02-27T13:01:33.098Z,3.00
2019-02-27T13:04:02.783Z,2.87
2019-02-27T13:06:35.324Z,3.30
2019-02-27T13:09:03.902Z,3.17
2019-02-27T13:11:34.822Z,3.37
2019-02-27T13:14:04.492Z,2.87
2019-02-27T13:16:34.020Z,3.20
2019-02-27T13:19:06.321Z,3.30
2019-02-27T13:21:34.746Z,3.03
2019-02-27T13:24:04.334Z,2.93
2019-02-27T13:26:35.410Z,3.00
2019-02-27T13:29:06.027Z,3.20
2019-02-27T13:31:36.051Z,2.90
2019-02-27T13:34:05.565Z,3.10
2019-02-27T13:36:35.792Z,2.77
2019-02-27T13:39:06.918Z,3.13
2019-02-27T13:41:37.252Z,3.00
2019-02-27T13:44:07.964Z,3.30
2019-02-27T13:46:41.318Z,3.40
2019-02-27T13:49:14.013Z,3.13
2019-02-27T13:51:46.832Z,3.40
2019-02-27T13:54:16.722Z,3.80
2019-02-27T13:56:46.632Z,4.03
2019-02-27T13:59:20.489Z,3.70
2019-02-27T14:01:51.522Z,3.60
2019-02-27T14:04:23.186Z,3.30
2019-02-27T14:06:53.135Z,3.23
2019-02-27T14:09:23.081Z,3.10
2019-02-27T14:11:53.263Z,3.40
2019-02-27T14:14:23.432Z,3.13
2019-02-27T14:16:53.877Z,3.03
2019-02-27T14:19:23.883Z,3.00
2019-02-27T14:21:56.043Z,2.80
2019-02-27T14:24:25.537Z,3.07
2019-02-27T14:26:55.395Z,2.50
2019-02-27T14:29:26.069Z,2.70
2019-02-27T14:31:57.208Z,3.00
2019-02-27T14:34:27.428Z,2.80
2019-02-27T14:36:57.731Z,3.70
2019-02-27T14:39:29.701Z,3.10
2019-02-27T14:41:59.016Z,2.67
2019-02-27T14:44:31.590Z,3.03
2019-02-27T14:47:01.557Z,3.03
2019-02-27T14:49:31.686Z,2.87
2019-02-27T14:52:01.140Z,2.63
2019-02-27T14:54:30.593Z,2.50
2019-02-27T14:57:00.898Z,2.87
2019-02-27T14:59:31.585Z,2.80
2019-02-27T15:02:01.068Z,2.50
2019-02-27T15:04:32.436Z,2.80
2019-02-27T15:07:06.075Z,2.80
2019-02-27T15:09:49.848Z,3.10
2019-02-27T15:12:20.486Z,2.90
2019-02-27T15:14:50.101Z,2.87
2019-02-27T15:17:22.571Z,2.40
2019-02-27T15:19:52.278Z,2.37
2019-02-27T15:22:22.487Z,2.07
2019-02-27T15:24:54.734Z,2.10
2019-02-27T15:27:37.167Z,2.53
2019-02-27T15:30:13.816Z,2.03
2019-02-27T15:32:56.989Z,2.43
2019-02-27T15:35:29.298Z,2.30
2019-02-27T15:37:59.850Z,2.07
2019-02-27T15:40:30.385Z,2.23
2019-02-27T15:43:00.083Z,1.90
2019-02-27T15:45:29.754Z,2.30
2019-02-27T15:47:59.310Z,2.07
2019-02-27T15:50:33.902Z,1.90
2019-02-27T15:53:07.349Z,1.70
2019-02-27T15:55:37.911Z,1.60
2019-02-27T15:58:11.830Z,2.20
2019-02-27T16:00:41.727Z,1.80
2019-02-27T16:03:12.056Z,1.80
2019-02-27T16:05:42.686Z,1.67
2019-02-27T16:08:12.404Z,1.80
2019-02-27T16:10:43.805Z,1.80
2019-02-27T16:13:13.291Z,2.00
2019-02-27T16:15:44.668Z,1.60
2019-02-27T16:18:14.576Z,1.43
2019-02-27T16:20:44.042Z,1.60
2019-02-27T16:23:13.745Z,1.70
2019-02-27T16:25:43.161Z,1.73
2019-02-27T16:28:16.436Z,1.77
2019-02-27T16:30:44.088Z,1.60
2019-02-27T16:33:13.730Z,1.63
2019-02-27T16:35:43.309Z,1.67
2019-02-27T16:38:13.271Z,1.90
2019-02-27T16:40:42.788Z,1.70
2019-02-27T16:43:13.296Z,2.10
2019-02-27T16:45:43.503Z,1.67
2019-02-27T16:48:13.321Z,1.90
2019-02-27T16:50:42.732Z,1.90
2019-02-27T16:53:15.725Z,1.87
2019-02-27T16:55:43.368Z,2.00
2019-02-27T16:58:13.054Z,1.60
2019-02-27T17:00:42.597Z,1.70
2019-02-27T17:03:13.465Z,1.87
2019-02-27T17:05:43.898Z,1.90
2019-02-27T17:08:13.505Z,1.63
2019-02-27T17:10:43.007Z,1.67
2019-02-27T17:13:15.455Z,1.60
2019-02-27T17:15:43.876Z,1.80
2019-02-27T17:18:13.431Z,2.03
2019-02-27T17:20:46.063Z,1.70
2019-02-27T17:23:15.742Z,1.60
2019-02-27T17:25:56.982Z,1.57
2019-02-27T17:28:29.782Z,1.70
2019-02-27T17:31:02.950Z,1.77
2019-02-27T17:33:52.473Z,1.60
2019-02-27T17:36:22.446Z,2.00
2019-02-27T17:38:52.453Z,1.80
2019-02-27T17:41:22.450Z,1.90
2019-02-27T17:43:51.949Z,2.50
2019-02-27T17:46:21.515Z,2.50
2019-02-27T17:48:55.824Z,2.70
2019-02-27T17:51:25.428Z,2.57
2019-02-27T17:53:55.187Z,2.33
2019-02-27T17:56:26.092Z,2.50
2019-02-27T17:58:55.822Z,2.20
2019-02-27T18:01:26.304Z,2.43
2019-02-27T18:03:55.981Z,2.30
2019-02-27T18:06:25.415Z,2.37
2019-02-27T18:08:54.911Z,2.20
2019-02-27T18:11:24.284Z,2.53
2019-02-27T18:13:53.856Z,2.53
2019-02-27T18:16:24.527Z,2.13
2019-02-27T18:18:54.849Z,2.97
2019-02-27T18:21:24.338Z,2.50
2019-02-27T18:23:55.357Z,2.23
2019-02-27T18:26:25.067Z,2.77
2019-02-27T18:28:55.226Z,2.30
2019-02-27T18:31:26.885Z,2.27
2019-02-27T18:33:55.917Z,2.33
2019-02-27T18:36:26.803Z,2.17
2019-02-27T18:39:01.688Z,2.10
2019-02-27T18:44:18.825Z,2.53
2019-02-27T18:46:48.430Z,2.23
2019-02-27T18:49:18.525Z,2.00
2019-02-27T18:51:48.707Z,2.20
2019-02-27T18:54:21.571Z,2.00
2019-02-27T18:56:49.659Z,2.17
2019-02-27T18:59:19.780Z,2.10
2019-02-27T19:01:49.605Z,2.00
2019-02-27T19:04:19.110Z,1.90
2019-02-27T19:06:48.647Z,2.07
2019-02-27T19:09:18.134Z,1.97
2019-02-27T19:11:50.864Z,2.10
2019-02-27T19:14:19.819Z,2.00
2019-02-27T19:16:55.882Z,2.23
2019-02-27T19:19:27.411Z,2.33
2019-02-27T19:21:57.047Z,2.07
2019-02-27T19:24:27.674Z,1.90
2019-02-27T19:26:57.152Z,2.00
2019-02-27T19:29:26.589Z,2.00
2019-02-27T19:31:56.278Z,2.00
2019-02-27T19:34:25.783Z,1.60
2019-02-27T19:36:55.763Z,1.80
2019-02-27T19:39:25.635Z,1.83
2019-02-27T19:41:55.031Z,1.73
2019-02-27T19:44:28.535Z,1.70
2019-02-27T19:46:56.235Z,2.00
2019-02-27T19:49:25.646Z,2.07
2019-02-27T19:51:55.521Z,1.90
2019-02-27T19:54:25.871Z,1.80
2019-02-27T19:56:55.360Z,1.83
2019-02-27T19:59:26.467Z,3.13
2019-02-27T20:01:55.894Z,3.00
2019-02-27T20:04:25.343Z,2.67
2019-02-27T20:06:54.890Z,2.20
2019-02-27T20:09:24.458Z,2.00
2019-02-27T20:11:54.275Z,2.10
2019-02-27T20:14:23.921Z,2.20
2019-02-27T20:16:55.208Z,2.00
2019-02-27T20:19:28.410Z,2.00
2019-02-27T20:21:56.063Z,2.20
2019-02-27T20:24:25.548Z,2.10
2019-02-27T20:26:55.033Z,1.80
2019-02-27T20:29:24.954Z,1.97
2019-02-27T20:31:55.334Z,2.20
2019-02-27T20:34:25.086Z,2.00
2019-02-27T20:36:54.700Z,2.10
2019-02-27T20:39:24.415Z,2.13
2019-02-27T20:41:53.979Z,2.00
2019-02-27T20:44:23.344Z,1.90
2019-02-27T20:46:54.010Z,2.33
2019-02-27T20:49:27.295Z,2.17
2019-02-27T20:54:58.800Z,2.27
2019-02-27T20:57:28.150Z,2.00
2019-02-27T21:00:02.439Z,2.10
2019-02-27T21:02:34.416Z,2.00
2019-02-27T21:05:06.726Z,2.10
2019-02-27T21:07:35.090Z,2.07
2019-02-27T21:10:08.260Z,2.00
2019-02-27T21:12:40.758Z,2.20
2019-02-27T21:15:14.668Z,2.10
2019-02-27T21:17:44.009Z,2.40
2019-02-27T21:20:16.644Z,2.23
2019-02-27T21:22:47.629Z,2.23
2019-02-27T21:25:17.047Z,2.33
2019-02-27T21:27:47.343Z,2.20
2019-02-27T21:30:21.362Z,2.40
2019-02-27T21:32:51.455Z,2.30
2019-02-27T21:35:21.186Z,2.20
2019-02-27T21:37:52.633Z,2.33
2019-02-27T21:40:23.125Z,2.30
2019-02-27T21:42:53.607Z,2.10
2019-02-27T21:45:23.931Z,2.30
2019-02-27T21:47:55.984Z,2.37
2019-02-27T21:50:26.046Z,2.50
2019-02-27T21:52:55.908Z,2.40
2019-02-27T21:55:27.837Z,2.47
2019-02-27T21:57:58.958Z,2.37
2019-02-27T22:00:30.767Z,2.37
2019-02-27T22:03:04.909Z,2.50
2019-02-27T22:05:44.160Z,2.50
2019-02-27T22:08:20.875Z,2.43
2019-02-27T22:10:53.675Z,2.47
2019-02-27T22:13:32.247Z,2.70
2019-02-27T22:16:02.445Z,2.50
2019-02-27T22:18:35.659Z,2.90
2019-02-27T22:21:09.504Z,2.70
2019-02-27T22:23:39.203Z,2.57
2019-02-27T22:26:13.681Z,2.20
2019-02-27T22:28:45.277Z,2.53
2019-02-27T22:31:18.145Z,2.70
2019-02-27T22:33:48.299Z,2.67
2019-02-27T22:36:18.523Z,3.20
2019-02-27T22:38:49.791Z,2.50
2019-02-27T22:41:19.718Z,2.93
2019-02-27T22:43:49.953Z,2.70
2019-02-27T22:46:19.503Z,2.67
2019-02-27T22:48:49.442Z,2.50
2019-02-27T22:51:19.093Z,2.83
2019-02-27T22:53:48.860Z,2.97
2019-02-27T22:56:19.126Z,2.80
2019-02-27T22:58:51.424Z,2.60
2019-02-27T23:01:23.337Z,3.07
2019-02-27T23:03:57.816Z,2.73
2019-02-27T23:06:27.066Z,2.77
2019-02-27T23:08:58.564Z,2.80
2019-02-27T23:11:28.088Z,2.93
2019-02-27T23:13:57.593Z,3.07
2019-02-27T23:16:29.837Z,3.27
2019-02-27T23:18:58.876Z,3.03
2019-02-27T23:21:29.241Z,2.90
2019-02-27T23:23:58.816Z,3.10
2019-02-27T23:26:28.956Z,2.93
2019-02-27T23:28:59.451Z,2.83
2019-02-27T23:31:31.194Z,2.90
2019-02-27T23:34:00.957Z,2.90
2019-02-27T23:36:30.675Z,3.10
2019-02-27T23:39:00.163Z,3.10
2019-02-27T23:41:29.668Z,3.20
2019-02-27T23:43:59.450Z,2.80
2019-02-27T23:46:28.952Z,2.90
2019-02-27T23:48:58.570Z,2.87
2019-02-27T23:51:28.142Z,3.50
2019-02-27T23:53:58.580Z,3.27
2019-02-27T23:56:28.728Z,3.00
2019-02-27T23:59:02.105Z,3.17
